sensor_id;sensor_type;location;lat;lon;timestamp;temperature;humidity
68139;DHT22;54940;50.842;4.410;2023-04-01T00:00:52;9.90;99.90
68139;DHT22;54940;50.842;4.410;2023-04-01T00:03:19;9.90;99.90
68139;DHT22;54940;50.842;4.410;2023-04-01T00:05:45;9.90;99.90
68139;DHT22;54940;50.842;4.410;2023-04-01T00:08:11;9.90;99.90
68139;DHT22;54940;50.842;4.410;2023-04-01T00:10:37;9.90;99.90
68139;DHT22;54940;50.842;4.410;2023-04-01T00:13:03;9.90;99.90
68139;DHT22;54940;50.842;4.410;2023-04-01T00:15:29;9.90;99.90
68139;DHT22;54940;50.842;4.410;2023-04-01T00:17:54;9.90;99.90
68139;DHT22;54940;50.842;4.410;2023-04-01T00:20:20;9.90;99.90
68139;DHT22;54940;50.842;4.410;2023-04-01T00:22:46;9.90;99.90
68139;DHT22;54940;50.842;4.410;2023-04-01T00:25:12;9.90;99.90
68139;DHT22;54940;50.842;4.410;2023-04-01T00:27:38;9.90;99.90
68139;DHT22;54940;50.842;4.410;2023-04-01T00:30:04;9.90;99.90
68139;DHT22;54940;50.842;4.410;2023-04-01T00:32:30;9.90;99.90
68139;DHT22;54940;50.842;4.410;2023-04-01T00:34:56;9.80;99.90
68139;DHT22;54940;50.842;4.410;2023-04-01T00:37:25;9.90;99.90
68139;DHT22;54940;50.842;4.410;2023-04-01T00:39:51;9.90;99.90
68139;DHT22;54940;50.842;4.410;2023-04-01T00:42:16;9.80;99.90
68139;DHT22;54940;50.842;4.410;2023-04-01T00:44:47;9.90;99.90
68139;DHT22;54940;50.842;4.410;2023-04-01T00:47:14;9.90;99.90
68139;DHT22;54940;50.842;4.410;2023-04-01T00:49:43;9.80;99.90
68139;DHT22;54940;50.842;4.410;2023-04-01T00:52:14;9.90;99.90
68139;DHT22;54940;50.842;4.410;2023-04-01T00:54:44;9.90;99.90
68139;DHT22;54940;50.842;4.410;2023-04-01T00:59:46;9.90;99.90
68139;DHT22;54940;50.842;4.410;2023-04-01T01:02:14;9.90;99.90
68139;DHT22;54940;50.842;4.410;2023-04-01T01:04:40;9.90;99.90
68139;DHT22;54940;50.842;4.410;2023-04-01T01:10:03;9.90;99.90
68139;DHT22;54940;50.842;4.410;2023-04-01T01:12:40;9.90;99.90
68139;DHT22;54940;50.842;4.410;2023-04-01T01:30:07;9.90;99.90
68139;DHT22;54940;50.842;4.410;2023-04-01T01:35:26;9.90;99.90
68139;DHT22;54940;50.842;4.410;2023-04-01T01:38:03;9.90;99.90
68139;DHT22;54940;50.842;4.410;2023-04-01T01:40:31;9.90;99.90
68139;DHT22;54940;50.842;4.410;2023-04-01T01:43:01;10.00;99.90
68139;DHT22;54940;50.842;4.410;2023-04-01T01:45:30;10.00;99.90
68139;DHT22;54940;50.842;4.410;2023-04-01T01:47:59;10.00;99.90
68139;DHT22;54940;50.842;4.410;2023-04-01T01:50:26;9.90;99.90
68139;DHT22;54940;50.842;4.410;2023-04-01T01:53:04;9.90;99.90
68139;DHT22;54940;50.842;4.410;2023-04-01T01:55:36;9.90;99.90
68139;DHT22;54940;50.842;4.410;2023-04-01T01:58:13;9.90;99.90
68139;DHT22;54940;50.842;4.410;2023-04-01T02:00:44;9.90;99.90
68139;DHT22;54940;50.842;4.410;2023-04-01T02:03:12;9.90;99.90
68139;DHT22;54940;50.842;4.410;2023-04-01T02:05:39;10.00;99.90
68139;DHT22;54940;50.842;4.410;2023-04-01T02:08:18;10.00;99.90
68139;DHT22;54940;50.842;4.410;2023-04-01T02:10:54;9.90;99.90
68139;DHT22;54940;50.842;4.410;2023-04-01T02:13:44;9.90;99.90
68139;DHT22;54940;50.842;4.410;2023-04-01T02:16:34;9.90;99.90
68139;DHT22;54940;50.842;4.410;2023-04-01T02:19:01;9.90;99.90
68139;DHT22;54940;50.842;4.410;2023-04-01T02:21:31;9.90;99.90
68139;DHT22;54940;50.842;4.410;2023-04-01T02:23:59;9.80;99.90
68139;DHT22;54940;50.842;4.410;2023-04-01T02:26:26;9.90;99.90
68139;DHT22;54940;50.842;4.410;2023-04-01T02:28:54;9.90;99.90
68139;DHT22;54940;50.842;4.410;2023-04-01T02:31:21;9.90;99.90
68139;DHT22;54940;50.842;4.410;2023-04-01T02:33:47;9.90;99.90
68139;DHT22;54940;50.842;4.410;2023-04-01T02:36:14;9.80;99.90
68139;DHT22;54940;50.842;4.410;2023-04-01T02:38:41;9.70;99.90
68139;DHT22;54940;50.842;4.410;2023-04-01T02:41:08;9.80;99.90
68139;DHT22;54940;50.842;4.410;2023-04-01T02:43:33;9.80;99.90
68139;DHT22;54940;50.842;4.410;2023-04-01T02:45:59;9.90;99.90
68139;DHT22;54940;50.842;4.410;2023-04-01T02:48:25;9.90;99.90
68139;DHT22;54940;50.842;4.410;2023-04-01T02:50:50;9.80;99.90
68139;DHT22;54940;50.842;4.410;2023-04-01T02:53:17;9.70;99.90
68139;DHT22;54940;50.842;4.410;2023-04-01T02:55:42;9.80;99.90
68139;DHT22;54940;50.842;4.410;2023-04-01T02:58:08;9.80;99.90
68139;DHT22;54940;50.842;4.410;2023-04-01T03:00:34;9.70;99.90
68139;DHT22;54940;50.842;4.410;2023-04-01T03:03:00;9.70;99.90
68139;DHT22;54940;50.842;4.410;2023-04-01T03:05:26;9.80;99.90
68139;DHT22;54940;50.842;4.410;2023-04-01T03:07:51;9.80;99.90
68139;DHT22;54940;50.842;4.410;2023-04-01T03:10:17;9.70;99.90
68139;DHT22;54940;50.842;4.410;2023-04-01T03:12:43;9.80;99.90
68139;DHT22;54940;50.842;4.410;2023-04-01T03:15:10;9.70;99.90
68139;DHT22;54940;50.842;4.410;2023-04-01T03:17:37;9.70;99.90
68139;DHT22;54940;50.842;4.410;2023-04-01T03:20:03;9.80;99.90
68139;DHT22;54940;50.842;4.410;2023-04-01T03:22:30;9.90;99.90
68139;DHT22;54940;50.842;4.410;2023-04-01T03:24:56;9.80;99.90
68139;DHT22;54940;50.842;4.410;2023-04-01T03:27:22;9.70;99.90
68139;DHT22;54940;50.842;4.410;2023-04-01T03:29:48;9.70;99.90
68139;DHT22;54940;50.842;4.410;2023-04-01T03:32:14;9.70;99.90
68139;DHT22;54940;50.842;4.410;2023-04-01T03:34:40;9.70;99.90
68139;DHT22;54940;50.842;4.410;2023-04-01T03:37:05;9.70;99.90
68139;DHT22;54940;50.842;4.410;2023-04-01T03:39:31;9.80;99.90
68139;DHT22;54940;50.842;4.410;2023-04-01T03:41:57;9.70;99.90
68139;DHT22;54940;50.842;4.410;2023-04-01T03:44:23;9.70;99.90
68139;DHT22;54940;50.842;4.410;2023-04-01T03:46:48;9.70;99.90
68139;DHT22;54940;50.842;4.410;2023-04-01T03:49:14;9.70;99.90
68139;DHT22;54940;50.842;4.410;2023-04-01T03:51:41;9.70;99.90
68139;DHT22;54940;50.842;4.410;2023-04-01T03:54:08;9.70;99.90
68139;DHT22;54940;50.842;4.410;2023-04-01T03:56:34;9.70;99.90
68139;DHT22;54940;50.842;4.410;2023-04-01T03:59:04;9.70;99.90
68139;DHT22;54940;50.842;4.410;2023-04-01T04:01:30;9.60;99.90
68139;DHT22;54940;50.842;4.410;2023-04-01T04:03:56;9.70;99.90
68139;DHT22;54940;50.842;4.410;2023-04-01T04:06:23;9.70;99.90
68139;DHT22;54940;50.842;4.410;2023-04-01T04:08:49;9.70;99.90
68139;DHT22;54940;50.842;4.410;2023-04-01T04:11:15;9.80;99.90
68139;DHT22;54940;50.842;4.410;2023-04-01T04:13:42;9.80;99.90
68139;DHT22;54940;50.842;4.410;2023-04-01T04:16:08;9.70;99.90
68139;DHT22;54940;50.842;4.410;2023-04-01T04:18:35;9.70;99.90
68139;DHT22;54940;50.842;4.410;2023-04-01T04:21:01;9.70;99.90
68139;DHT22;54940;50.842;4.410;2023-04-01T04:23:27;9.70;99.90
68139;DHT22;54940;50.842;4.410;2023-04-01T04:25:59;9.70;99.90
68139;DHT22;54940;50.842;4.410;2023-04-01T04:28:26;9.70;99.90
68139;DHT22;54940;50.842;4.410;2023-04-01T04:30:53;9.60;99.90
68139;DHT22;54940;50.842;4.410;2023-04-01T04:33:19;9.60;99.90
68139;DHT22;54940;50.842;4.410;2023-04-01T04:35:45;9.50;99.90
68139;DHT22;54940;50.842;4.410;2023-04-01T04:38:10;9.60;99.90
68139;DHT22;54940;50.842;4.410;2023-04-01T04:40:37;9.70;99.90
68139;DHT22;54940;50.842;4.410;2023-04-01T04:43:03;9.60;99.90
68139;DHT22;54940;50.842;4.410;2023-04-01T04:45:29;9.60;99.90
68139;DHT22;54940;50.842;4.410;2023-04-01T04:47:56;9.50;99.90
68139;DHT22;54940;50.842;4.410;2023-04-01T04:50:22;9.70;99.90
68139;DHT22;54940;50.842;4.410;2023-04-01T04:52:48;9.70;99.90
68139;DHT22;54940;50.842;4.410;2023-04-01T04:55:13;9.70;99.90
68139;DHT22;54940;50.842;4.410;2023-04-01T04:57:40;9.60;99.90
68139;DHT22;54940;50.842;4.410;2023-04-01T05:00:06;9.60;99.90
68139;DHT22;54940;50.842;4.410;2023-04-01T05:02:33;9.70;99.90
68139;DHT22;54940;50.842;4.410;2023-04-01T05:04:58;9.70;99.90
68139;DHT22;54940;50.842;4.410;2023-04-01T05:07:24;9.70;99.90
68139;DHT22;54940;50.842;4.410;2023-04-01T05:09:50;9.70;99.90
68139;DHT22;54940;50.842;4.410;2023-04-01T05:12:15;9.60;99.90
68139;DHT22;54940;50.842;4.410;2023-04-01T05:14:41;9.70;99.90
68139;DHT22;54940;50.842;4.410;2023-04-01T05:17:11;9.70;99.90
68139;DHT22;54940;50.842;4.410;2023-04-01T05:19:37;9.70;99.90
68139;DHT22;54940;50.842;4.410;2023-04-01T05:22:04;9.70;99.90
68139;DHT22;54940;50.842;4.410;2023-04-01T05:24:30;9.70;99.90
68139;DHT22;54940;50.842;4.410;2023-04-01T05:26:56;9.70;99.90
68139;DHT22;54940;50.842;4.410;2023-04-01T05:29:23;9.70;99.90
68139;DHT22;54940;50.842;4.410;2023-04-01T05:31:49;9.60;99.90
68139;DHT22;54940;50.842;4.410;2023-04-01T05:34:14;9.60;99.90
68139;DHT22;54940;50.842;4.410;2023-04-01T05:36:40;9.60;99.90
68139;DHT22;54940;50.842;4.410;2023-04-01T05:39:08;9.60;99.90
68139;DHT22;54940;50.842;4.410;2023-04-01T05:41:37;9.60;99.90
68139;DHT22;54940;50.842;4.410;2023-04-01T05:44:03;9.60;99.90
68139;DHT22;54940;50.842;4.410;2023-04-01T05:46:30;9.60;99.90
68139;DHT22;54940;50.842;4.410;2023-04-01T05:48:56;9.50;99.90
68139;DHT22;54940;50.842;4.410;2023-04-01T05:51:22;9.50;99.90
68139;DHT22;54940;50.842;4.410;2023-04-01T05:53:47;9.50;99.90
68139;DHT22;54940;50.842;4.410;2023-04-01T05:56:13;9.50;99.90
68139;DHT22;54940;50.842;4.410;2023-04-01T05:58:39;9.50;99.90
68139;DHT22;54940;50.842;4.410;2023-04-01T06:01:10;9.50;99.90
68139;DHT22;54940;50.842;4.410;2023-04-01T06:03:36;9.60;99.90
68139;DHT22;54940;50.842;4.410;2023-04-01T06:06:02;9.70;99.90
68139;DHT22;54940;50.842;4.410;2023-04-01T06:08:30;9.60;99.90
68139;DHT22;54940;50.842;4.410;2023-04-01T06:27:19;9.50;99.90
68139;DHT22;54940;50.842;4.410;2023-04-01T06:41:08;9.50;99.90
68139;DHT22;54940;50.842;4.410;2023-04-01T06:44:06;9.60;99.90
68139;DHT22;54940;50.842;4.410;2023-04-01T06:46:47;9.50;99.90
68139;DHT22;54940;50.842;4.410;2023-04-01T06:52:02;9.60;99.90
68139;DHT22;54940;50.842;4.410;2023-04-01T06:54:38;9.60;99.90
68139;DHT22;54940;50.842;4.410;2023-04-01T06:59:49;9.50;99.90
68139;DHT22;54940;50.842;4.410;2023-04-01T07:02:39;9.50;99.90
68139;DHT22;54940;50.842;4.410;2023-04-01T07:05:07;9.50;99.90
68139;DHT22;54940;50.842;4.410;2023-04-01T07:10:19;9.60;99.90
68139;DHT22;54940;50.842;4.410;2023-04-01T07:12:53;9.70;99.90
68139;DHT22;54940;50.842;4.410;2023-04-01T07:15:26;9.70;99.90
68139;DHT22;54940;50.842;4.410;2023-04-01T07:17:57;9.60;99.90
68139;DHT22;54940;50.842;4.410;2023-04-01T07:20:30;9.60;99.90
68139;DHT22;54940;50.842;4.410;2023-04-01T07:23:03;9.60;99.90
68139;DHT22;54940;50.842;4.410;2023-04-01T07:25:43;9.50;99.90
68139;DHT22;54940;50.842;4.410;2023-04-01T07:28:15;9.60;99.90
68139;DHT22;54940;50.842;4.410;2023-04-01T07:31:04;9.60;99.90
68139;DHT22;54940;50.842;4.410;2023-04-01T07:36:27;9.50;99.90
68139;DHT22;54940;50.842;4.410;2023-04-01T07:41:51;9.60;99.90
68139;DHT22;54940;50.842;4.410;2023-04-01T07:44:35;9.60;99.90
68139;DHT22;54940;50.842;4.410;2023-04-01T07:55:26;9.60;99.90
68139;DHT22;54940;50.842;4.410;2023-04-01T08:00:49;9.60;99.90
68139;DHT22;54940;50.842;4.410;2023-04-01T08:06:43;9.70;99.90
68139;DHT22;54940;50.842;4.410;2023-04-01T08:17:19;9.70;99.90
68139;DHT22;54940;50.842;4.410;2023-04-01T08:22:48;9.70;99.90
68139;DHT22;54940;50.842;4.410;2023-04-01T08:25:27;9.70;99.90
68139;DHT22;54940;50.842;4.410;2023-04-01T08:30:53;9.70;99.90
68139;DHT22;54940;50.842;4.410;2023-04-01T08:33:29;9.60;99.90
68139;DHT22;54940;50.842;4.410;2023-04-01T08:36:37;9.70;99.90
68139;DHT22;54940;50.842;4.410;2023-04-01T08:39:15;9.70;99.90
68139;DHT22;54940;50.842;4.410;2023-04-01T08:56:05;9.90;99.90
68139;DHT22;54940;50.842;4.410;2023-04-01T08:58:59;9.90;99.90
68139;DHT22;54940;50.842;4.410;2023-04-01T09:15:46;9.80;99.90
68139;DHT22;54940;50.842;4.410;2023-04-01T09:18:24;9.80;99.90
68139;DHT22;54940;50.842;4.410;2023-04-01T09:37:42;9.90;99.90
68139;DHT22;54940;50.842;4.410;2023-04-01T09:43:25;10.00;99.90
68139;DHT22;54940;50.842;4.410;2023-04-01T09:54:58;10.20;99.90
68139;DHT22;54940;50.842;4.410;2023-04-01T10:19:43;10.20;99.90
68139;DHT22;54940;50.842;4.410;2023-04-01T10:28:22;10.30;99.90
68139;DHT22;54940;50.842;4.410;2023-04-01T10:36:52;10.40;99.90
68139;DHT22;54940;50.842;4.410;2023-04-01T10:42:53;10.50;99.90
68139;DHT22;54940;50.842;4.410;2023-04-01T10:54:18;10.40;99.90
68139;DHT22;54940;50.842;4.410;2023-04-01T11:21:40;10.70;99.90
68139;DHT22;54940;50.842;4.410;2023-04-01T11:24:13;10.70;99.90
68139;DHT22;54940;50.842;4.410;2023-04-01T11:29:28;10.70;99.90
68139;DHT22;54940;50.842;4.410;2023-04-01T11:32:20;10.70;99.90
68139;DHT22;54940;50.842;4.410;2023-04-01T11:37:51;10.70;99.90
68139;DHT22;54940;50.842;4.410;2023-04-01T11:43:48;10.70;99.90
68139;DHT22;54940;50.842;4.410;2023-04-01T11:46:33;10.60;99.90
68139;DHT22;54940;50.842;4.410;2023-04-01T12:06:05;10.60;99.90
68139;DHT22;54940;50.842;4.410;2023-04-01T12:17:27;10.70;99.90
68139;DHT22;54940;50.842;4.410;2023-04-01T12:26:00;10.80;99.90
68139;DHT22;54940;50.842;4.410;2023-04-01T12:36:00;10.70;99.90
68139;DHT22;54940;50.842;4.410;2023-04-01T12:38:59;10.70;99.90
68139;DHT22;54940;50.842;4.410;2023-04-01T12:44:16;10.60;99.90
68139;DHT22;54940;50.842;4.410;2023-04-01T12:47:07;10.50;99.90
68139;DHT22;54940;50.842;4.410;2023-04-01T12:53:02;10.60;99.90
68139;DHT22;54940;50.842;4.410;2023-04-01T12:55:43;10.50;99.90
68139;DHT22;54940;50.842;4.410;2023-04-01T13:01:19;10.50;99.90
68139;DHT22;54940;50.842;4.410;2023-04-01T13:09:31;10.40;99.90
68139;DHT22;54940;50.842;4.410;2023-04-01T13:23:49;10.30;99.90
68139;DHT22;54940;50.842;4.410;2023-04-01T13:29:05;10.40;99.90
68139;DHT22;54940;50.842;4.410;2023-04-01T13:31:48;10.40;99.90
68139;DHT22;54940;50.842;4.410;2023-04-01T13:34:39;10.40;99.90
68139;DHT22;54940;50.842;4.410;2023-04-01T13:45:42;10.40;99.90
68139;DHT22;54940;50.842;4.410;2023-04-01T13:48:29;10.40;99.90
68139;DHT22;54940;50.842;4.410;2023-04-01T13:54:13;10.20;99.90
68139;DHT22;54940;50.842;4.410;2023-04-01T13:56:43;10.20;99.90
68139;DHT22;54940;50.842;4.410;2023-04-01T14:24:27;10.50;99.90
68139;DHT22;54940;50.842;4.410;2023-04-01T14:29:44;10.50;99.90
68139;DHT22;54940;50.842;4.410;2023-04-01T14:46:46;10.40;99.90
68139;DHT22;54940;50.842;4.410;2023-04-01T14:49:45;10.40;99.90
68139;DHT22;54940;50.842;4.410;2023-04-01T14:54:39;10.40;99.90
68139;DHT22;54940;50.842;4.410;2023-04-01T14:57:23;10.40;99.90
68139;DHT22;54940;50.842;4.410;2023-04-01T15:00:09;10.30;99.90
68139;DHT22;54940;50.842;4.410;2023-04-01T15:08:13;10.30;99.90
68139;DHT22;54940;50.842;4.410;2023-04-01T15:27:59;10.40;99.90
68139;DHT22;54940;50.842;4.410;2023-04-01T15:30:50;10.30;99.90
68139;DHT22;54940;50.842;4.410;2023-04-01T15:34:07;10.30;99.90
68139;DHT22;54940;50.842;4.410;2023-04-01T15:36:49;10.20;99.90
68139;DHT22;54940;50.842;4.410;2023-04-01T15:39:36;10.30;99.90
68139;DHT22;54940;50.842;4.410;2023-04-01T16:00:28;9.90;99.90
68139;DHT22;54940;50.842;4.410;2023-04-01T16:06:35;9.80;99.90
68139;DHT22;54940;50.842;4.410;2023-04-01T16:19:59;9.70;99.90
68139;DHT22;54940;50.842;4.410;2023-04-01T16:22:53;9.80;99.90
68139;DHT22;54940;50.842;4.410;2023-04-01T16:25:26;9.80;99.90
68139;DHT22;54940;50.842;4.410;2023-04-01T16:31:13;9.80;99.90
68139;DHT22;54940;50.842;4.410;2023-04-01T16:36:28;9.90;99.90
68139;DHT22;54940;50.842;4.410;2023-04-01T16:41:36;9.80;99.90
68139;DHT22;54940;50.842;4.410;2023-04-01T16:44:25;9.80;99.90
68139;DHT22;54940;50.842;4.410;2023-04-01T16:46:53;9.80;99.90
68139;DHT22;54940;50.842;4.410;2023-04-01T16:49:40;9.80;99.90
68139;DHT22;54940;50.842;4.410;2023-04-01T16:59:38;9.70;99.90
68139;DHT22;54940;50.842;4.410;2023-04-01T17:02:11;9.70;99.90
68139;DHT22;54940;50.842;4.410;2023-04-01T17:15:37;9.80;99.90
68139;DHT22;54940;50.842;4.410;2023-04-01T17:23:53;9.70;99.90
68139;DHT22;54940;50.842;4.410;2023-04-01T17:29:32;9.70;99.90
68139;DHT22;54940;50.842;4.410;2023-04-01T17:43:29;9.70;99.90
68139;DHT22;54940;50.842;4.410;2023-04-01T17:45:43;9.70;99.90
68139;DHT22;54940;50.842;4.410;2023-04-01T17:59:16;9.60;99.90
68139;DHT22;54940;50.842;4.410;2023-04-01T18:07:41;9.60;99.90
68139;DHT22;54940;50.842;4.410;2023-04-01T18:21:53;9.50;99.90
68139;DHT22;54940;50.842;4.410;2023-04-01T18:24:32;9.60;99.90
68139;DHT22;54940;50.842;4.410;2023-04-01T18:27:03;9.60;99.90
68139;DHT22;54940;50.842;4.410;2023-04-01T18:32:24;9.50;99.90
68139;DHT22;54940;50.842;4.410;2023-04-01T18:40:36;9.50;99.90
68139;DHT22;54940;50.842;4.410;2023-04-01T18:45:44;9.60;99.90
68139;DHT22;54940;50.842;4.410;2023-04-01T18:51:00;9.50;99.90
68139;DHT22;54940;50.842;4.410;2023-04-01T18:53:38;9.40;99.90
68139;DHT22;54940;50.842;4.410;2023-04-01T18:56:11;9.40;99.90
68139;DHT22;54940;50.842;4.410;2023-04-01T18:58:50;9.40;99.90
68139;DHT22;54940;50.842;4.410;2023-04-01T19:04:30;9.50;99.90
68139;DHT22;54940;50.842;4.410;2023-04-01T19:06:59;9.40;99.90
68139;DHT22;54940;50.842;4.410;2023-04-01T19:09:30;9.40;99.90
68139;DHT22;54940;50.842;4.410;2023-04-01T19:12:29;9.40;99.90
68139;DHT22;54940;50.842;4.410;2023-04-01T19:15:14;9.40;99.90
68139;DHT22;54940;50.842;4.410;2023-04-01T19:18:03;9.40;99.90
68139;DHT22;54940;50.842;4.410;2023-04-01T19:20:47;9.30;99.90
68139;DHT22;54940;50.842;4.410;2023-04-01T19:26:20;9.30;99.90
68139;DHT22;54940;50.842;4.410;2023-04-01T19:37:25;9.20;99.90
68139;DHT22;54940;50.842;4.410;2023-04-01T19:40:20;9.10;99.90
68139;DHT22;54940;50.842;4.410;2023-04-01T19:43:14;9.20;99.90
68139;DHT22;54940;50.842;4.410;2023-04-01T19:46:03;9.20;99.90
68139;DHT22;54940;50.842;4.410;2023-04-01T20:05:16;9.10;99.90
68139;DHT22;54940;50.842;4.410;2023-04-01T20:08:00;9.10;99.90
68139;DHT22;54940;50.842;4.410;2023-04-01T20:16:18;9.20;99.90
68139;DHT22;54940;50.842;4.410;2023-04-01T20:19:00;9.20;99.90
68139;DHT22;54940;50.842;4.410;2023-04-01T20:27:15;9.30;99.90
68139;DHT22;54940;50.842;4.410;2023-04-01T20:41:27;9.10;99.90
68139;DHT22;54940;50.842;4.410;2023-04-01T20:46:48;9.20;99.90
68139;DHT22;54940;50.842;4.410;2023-04-01T20:54:55;9.30;99.90
68139;DHT22;54940;50.842;4.410;2023-04-01T20:57:44;9.30;99.90
68139;DHT22;54940;50.842;4.410;2023-04-01T21:08:50;9.40;99.90
68139;DHT22;54940;50.842;4.410;2023-04-01T21:14:43;9.50;99.90
68139;DHT22;54940;50.842;4.410;2023-04-01T21:28:33;9.40;99.90
68139;DHT22;54940;50.842;4.410;2023-04-01T21:45:06;9.50;99.90
68139;DHT22;54940;50.842;4.410;2023-04-01T21:50:45;9.50;99.90
68139;DHT22;54940;50.842;4.410;2023-04-01T21:59:15;9.50;99.90
68139;DHT22;54940;50.842;4.410;2023-04-01T22:04:48;9.60;99.90
68139;DHT22;54940;50.842;4.410;2023-04-01T22:07:21;9.60;99.90
68139;DHT22;54940;50.842;4.410;2023-04-01T22:23:01;9.70;99.90
68139;DHT22;54940;50.842;4.410;2023-04-01T22:25:45;9.70;99.90
68139;DHT22;54940;50.842;4.410;2023-04-01T22:28:27;9.80;99.90
68139;DHT22;54940;50.842;4.410;2023-04-01T22:31:05;9.80;99.90
68139;DHT22;54940;50.842;4.410;2023-04-01T22:33:48;9.80;99.90
68139;DHT22;54940;50.842;4.410;2023-04-01T22:47:40;9.70;99.90
68139;DHT22;54940;50.842;4.410;2023-04-01T22:52:45;9.60;99.90
68139;DHT22;54940;50.842;4.410;2023-04-01T22:55:28;9.70;99.90
68139;DHT22;54940;50.842;4.410;2023-04-01T22:58:03;9.70;99.90
68139;DHT22;54940;50.842;4.410;2023-04-01T23:00:32;9.70;99.90
68139;DHT22;54940;50.842;4.410;2023-04-01T23:03:15;9.60;99.90
68139;DHT22;54940;50.842;4.410;2023-04-01T23:05:57;9.60;99.90
68139;DHT22;54940;50.842;4.410;2023-04-01T23:08:54;9.70;99.90
68139;DHT22;54940;50.842;4.410;2023-04-01T23:17:31;9.60;99.90
68139;DHT22;54940;50.842;4.410;2023-04-01T23:22:37;9.60;99.90
68139;DHT22;54940;50.842;4.410;2023-04-01T23:30:52;9.50;99.90
68139;DHT22;54940;50.842;4.410;2023-04-01T23:38:36;9.40;99.90
68139;DHT22;54940;50.842;4.410;2023-04-01T23:41:06;9.50;99.90
68139;DHT22;54940;50.842;4.410;2023-04-01T23:43:36;9.30;99.90
68139;DHT22;54940;50.842;4.410;2023-04-01T23:46:05;9.40;99.90
68139;DHT22;54940;50.842;4.410;2023-04-01T23:48:38;9.40;99.90
68139;DHT22;54940;50.842;4.410;2023-04-01T23:53:48;9.50;99.90
68139;DHT22;54940;50.842;4.410;2023-04-01T23:56:21;9.60;99.90
68139;DHT22;54940;50.842;4.410;2023-04-01T23:58:49;9.60;99.90
